Antares — DFJQ — position and weather

sailwx.info

Track history (hours):
 
Tides and Currents Weather Stations Pressure Air Temp Water Temp Dewpoint Dewpoint Depression Visibility Wind Speed Wind Dir Waves Ship Positions

Antares

Last reported at 2018-Apr-18 22:21 UTC. Time now 2018-Apr-20 10:46 UTC.
Position N 37°26' W 009°51'.

Length 79 m; draft 5.8 m.

Type: Ship. MMSI: 218777000.

Date/timePositionNaut miles runAvg speedWind from/ knotsBaromVisibWave heightAir tempDewpointWater temp
2018-Apr-18 22:21N 37°26' W 009°51'3 9.9
2018-Apr-18 22:01N 37°29' W 009°51'6 9.6
2018-Apr-18 21:24N 37°35' W 009°53'4 9.9
2018-Apr-18 21:00N 37°39' W 009°54'510.0
2018-Apr-18 20:31N 37°43' W 009°55'16 9.7
2018-Apr-18 18:50N 37°59' W 009°59'4 9.3
2018-Apr-18 18:25N 38°03' W 009°60'4 9.3
2018-Apr-18 18:00N 38°07' W 010°01'5 9.4
2018-Apr-18 17:30N 38°11' W 010°02'5 9.3
2018-Apr-18 17:00N 38°16' W 010°04'5 9.6
2018-Apr-18 16:30N 38°21' W 010°05'510.1
2018-Apr-18 16:00N 38°25' W 010°06'510.3
2018-Apr-18 15:30N 38°30' W 010°08'510.0
2018-Apr-18 15:00N 38°35' W 010°10'510.1
2018-Apr-18 14:30N 38°40' W 010°11'5 9.8
2018-Apr-18 14:00N 38°45' W 010°12'5 9.6
2018-Apr-18 13:30N 38°50' W 010°12'5 9.3
2018-Apr-18 12:59N 38°55' W 010°12'4 9.1
2018-Apr-18 12:30N 38°59' W 010°12'4 8.8
2018-Apr-18 12:01N 39°03' W 010°12'4 9.0
2018-Apr-18 11:31N 39°08' W 010°12'5 9.6
2018-Apr-18 11:01N 39°13' W 010°12'5 9.5
2018-Apr-18 10:30N 39°17' W 010°12'5 9.3
2018-Apr-18 09:57N 39°23' W 010°11'4 9.3
2018-Apr-18 09:30N 39°27' W 010°11'50 9.2
2018-Apr-18 04:08N 40°16' W 010°11'3 8.8
2018-Apr-18 03:45N 40°20' W 010°11'3 8.7
2018-Apr-18 03:27N 40°22' W 010°11'43 8.9
2018-Apr-17 22:42N 41°05' W 010°10'2 9.1
2018-Apr-17 22:29N 41°07' W 010°10'  
2018-Apr-14 14:43N 48°01' W 006°32'30 7.4
2018-Apr-14 10:38N 48°28' W 006°11'6 9.3
2018-Apr-14 09:58N 48°33' W 006°06'2310.2
2018-Apr-14 07:43N 48°53' W 005°49'5 9.7
2018-Apr-14 07:11N 48°56' W 005°43'2 9.7
2018-Apr-14 06:59N 48°57' W 005°40'10 9.4
2018-Apr-14 05:54N 49°03' W 005°27'6 8.8
2018-Apr-14 05:14N 49°05' W 005°19'2 8.4
2018-Apr-14 04:58N 49°06' W 005°16'75 9.2
2018-Apr-13 20:48N 49°44' W 003°37'310.1
2018-Apr-13 20:30N 49°46' W 003°33'5 9.8
2018-Apr-13 20:00N 49°48' W 003°26'5 9.4
2018-Apr-13 19:30N 49°51' W 003°20'4 8.9
2018-Apr-13 19:01N 49°53' W 003°14'4 8.4
2018-Apr-13 18:30N 49°55' W 003°08'4 8.1
2018-Apr-13 18:00N 49°57' W 003°03'4 8.0
2018-Apr-13 17:30N 49°59' W 002°57'4 8.1
2018-Apr-13 17:00N 49°60' W 002°51'4 8.3
2018-Apr-13 16:30N 50°01' W 002°45'4 8.6
2018-Apr-13 16:00N 50°02' W 002°39'2610.3
2018-Apr-13 13:32N 50°10' W 002°00'011.8
2018-Apr-13 13:30N 50°10' W 001°60'612.2
2018-Apr-13 13:00N 50°11' W 001°51'612.5
2018-Apr-13 12:30N 50°13' W 001°41'612.5
2018-Apr-13 12:00N 50°15' W 001°32'4510.0
2018-Apr-13 07:29N 50°27' W 000°24'4 7.9
2018-Apr-13 07:00N 50°28' W 000°18'4 8.0
2018-Apr-13 06:29N 50°30' W 000°12'4 8.2
2018-Apr-13 06:00N 50°31' W 000°06'4 8.5
2018-Apr-13 05:31N 50°32' E 000°00'4 8.8
2018-Apr-13 05:00N 50°33' E 000°07'5 9.3
2018-Apr-13 04:28N 50°35' E 000°14'5 9.8
2018-Apr-13 04:00N 50°36' E 000°21'510.2
2018-Apr-13 03:30N 50°37' E 000°29'510.3
2018-Apr-13 03:01N 50°39' E 000°36'510.7
2018-Apr-13 02:30N 50°42' E 000°43'510.5
2018-Apr-13 02:00N 50°45' E 000°50'510.2
2018-Apr-13 01:28N 50°49' E 000°57'5 9.8
2018-Apr-13 01:00N 50°51' E 001°03'17 8.8
2018-Apr-12 23:02N 51°03' E 001°24'0 8.0
2018-Apr-12 23:00N 51°03' E 001°24'4 7.8
2018-Apr-12 22:30N 51°05' E 001°29'4 7.6
2018-Apr-12 22:01N 51°08' E 001°33'4 7.9
2018-Apr-12 21:30N 51°10' E 001°38'4 8.4
2018-Apr-12 21:00N 51°13' E 001°43'5 9.2
2018-Apr-12 20:31N 51°17' E 001°47'510.1
2018-Apr-12 20:01N 51°21' E 001°51'510.8
2018-Apr-12 19:30N 51°26' E 001°54'510.4
2018-Apr-12 19:00N 51°29' E 002°01'611.3
2018-Apr-12 18:31N 51°34' E 002°07'611.3
2018-Apr-12 18:00N 51°38' E 002°13'151 9.2
2018-Apr-12 01:32N 53°32' E 004°56'0 9.1
2018-Apr-12 01:30N 53°32' E 004°57'5 9.2
2018-Apr-12 01:01N 53°33' E 005°04'107 9.8
2018-Apr-11 14:07N 54°01' E 007°58'310.0
2018-Apr-11 13:48N 54°01' E 008°03'310.4
2018-Apr-11 13:29N 54°01' E 008°09'611.5
2018-Apr-11 12:58N 54°00' E 008°19'612.6
2018-Apr-11 12:29N 53°59' E 008°29'612.3
2018-Apr-11 12:00N 53°57' E 008°39'511.0
2018-Apr-11 11:30N 53°52' E 008°43'0 0.1
2018-Apr-11 11:00N 53°52' E 008°43'0 0.0
2018-Apr-11 10:23N 53°52' E 008°43'0 0.0
2018-Apr-11 09:59N 53°52' E 008°43'0 0.0
2018-Apr-11 09:11N 53°52' E 008°43'0 0.0
2018-Apr-11 08:59N 53°52' E 008°43'0 0.0
2018-Apr-11 08:26N 53°52' E 008°43'0 0.0
2018-Apr-11 07:59N 53°52' E 008°43'0 0.0
2018-Apr-11 07:29N 53°52' E 008°43'0 0.0
2018-Apr-11 06:59N 53°52' E 008°43'0 0.0
2018-Apr-11 06:29N 53°52' E 008°43'0 0.0
2018-Apr-11 05:56N 53°52' E 008°43'0 0.0
2018-Apr-11 05:20N 53°52' E 008°43'0 0.0
2018-Apr-11 04:56N 53°52' E 008°43'0 0.0
2018-Apr-11 04:29N 53°52' E 008°43'0 0.0
2018-Apr-11 03:59N 53°52' E 008°43'0 0.0
2018-Apr-11 03:29N 53°52' E 008°43'0 0.0
2018-Apr-11 02:59N 53°52' E 008°43'0 0.0
2018-Apr-11 02:26N 53°52' E 008°43'0 0.0
2018-Apr-11 01:59N 53°52' E 008°43'0 0.0
2018-Apr-11 01:29N 53°52' E 008°43'0 0.0
2018-Apr-11 00:59N 53°52' E 008°43'0 0.0
2018-Apr-11 00:26N 53°52' E 008°43'0 0.0
2018-Apr-10 23:59N 53°52' E 008°43'0 0.0
2018-Apr-10 23:29N 53°52' E 008°43'0 0.0
2018-Apr-10 22:56N 53°52' E 008°43'0 0.0
2018-Apr-10 22:29N 53°52' E 008°43'0 0.0
2018-Apr-10 21:56N 53°52' E 008°43'0 0.0
2018-Apr-10 21:20N 53°52' E 008°43'0 0.0
2018-Apr-10 20:56N 53°52' E 008°43'0 0.0
2018-Apr-10 20:26N 53°52' E 008°43'0 0.0
2018-Apr-10 19:59N 53°52' E 008°43'0 0.0
2018-Apr-10 19:29N 53°52' E 008°43'0 0.0
2018-Apr-10 18:53N 53°52' E 008°43'0 0.0
2018-Apr-10 18:26N 53°52' E 008°43'0 0.0
2018-Apr-10 17:59N 53°52' E 008°43'0 0.0
2018-Apr-10 17:29N 53°52' E 008°43'0 0.0
2018-Apr-10 16:50N 53°52' E 008°43'0 0.0
2018-Apr-10 16:29N 53°52' E 008°43'0 0.0
2018-Apr-10 15:59N 53°52' E 008°43'0 0.0
2018-Apr-10 15:26N 53°52' E 008°43'0 0.0
2018-Apr-10 14:59N 53°52' E 008°43'0 0.0
2018-Apr-10 14:29N 53°52' E 008°43'0 0.0
2018-Apr-10 13:59N 53°52' E 008°43'0 0.0
2018-Apr-10 13:29N 53°52' E 008°43'0 0.0
2018-Apr-10 12:59N 53°52' E 008°43'0 0.0
2018-Apr-10 12:26N 53°52' E 008°43'0 0.0
2018-Apr-10 11:50N 53°52' E 008°43'0 0.0
2018-Apr-10 11:29N 53°52' E 008°43'0 0.0
2018-Apr-10 10:53N 53°52' E 008°43'0 0.0
2018-Apr-10 10:23N 53°52' E 008°43'0 0.0
2018-Apr-10 09:59N 53°52' E 008°43'0 0.0
2018-Apr-10 09:29N 53°52' E 008°43'0 0.0
2018-Apr-10 08:59N 53°52' E 008°43'0 0.0
2018-Apr-10 08:29N 53°52' E 008°43'0 0.0
2018-Apr-10 07:59N 53°52' E 008°43'0 0.0
2018-Apr-10 07:26N 53°52' E 008°43'0 0.0
2018-Apr-10 06:59N 53°52' E 008°43'0 0.0
2018-Apr-10 06:29N 53°52' E 008°43'0 0.0
2018-Apr-10 05:59N 53°52' E 008°43'0 0.0
2018-Apr-10 05:29N 53°52' E 008°43'0 0.0
2018-Apr-10 04:59N 53°52' E 008°43'0 0.0
2018-Apr-10 04:26N 53°52' E 008°43'0 0.0
2018-Apr-10 03:59N 53°52' E 008°43'0 0.0
2018-Apr-10 03:29N 53°52' E 008°43'0 0.0
2018-Apr-10 02:59N 53°52' E 008°43'0 0.0
2018-Apr-10 02:29N 53°52' E 008°43'0 0.0
2018-Apr-10 01:59N 53°52' E 008°43'0 0.0
2018-Apr-10 01:29N 53°52' E 008°43'0 0.0
2018-Apr-10 00:56N 53°52' E 008°43'0 0.0
2018-Apr-10 00:23N 53°52' E 008°43'0 0.0
2018-Apr-09 23:59N 53°52' E 008°43'0 0.0
2018-Apr-09 23:29N 53°52' E 008°43'0 0.0
2018-Apr-09 22:56N 53°52' E 008°43'0 0.0
2018-Apr-09 22:29N 53°52' E 008°43'0 0.0
2018-Apr-09 21:59N 53°52' E 008°43'0 0.0
2018-Apr-09 21:29N 53°52' E 008°43'0 0.0
2018-Apr-09 20:59N 53°52' E 008°43'0 0.0
2018-Apr-09 20:29N 53°52' E 008°43'0 0.0
2018-Apr-09 19:59N 53°52' E 008°43'0 0.0
2018-Apr-09 19:29N 53°52' E 008°43'0 0.0
2018-Apr-09 18:59N 53°52' E 008°43'0 0.0
2018-Apr-09 18:29N 53°52' E 008°43'0 0.0
2018-Apr-09 17:53N 53°52' E 008°43'0 0.0
2018-Apr-09 17:29N 53°52' E 008°43'0 0.0
2018-Apr-09 16:59N 53°52' E 008°43'0 0.0
2018-Apr-09 16:29N 53°52' E 008°43'0 0.0
2018-Apr-09 15:59N 53°52' E 008°43'0 0.0
2018-Apr-09 15:26N 53°52' E 008°43'0 0.0
2018-Apr-09 14:59N 53°52' E 008°43'0 0.0
2018-Apr-09 14:29N 53°52' E 008°43'0 0.0
2018-Apr-09 13:56N 53°52' E 008°43'0 0.0
2018-Apr-09 13:26N 53°52' E 008°43'0 0.0
2018-Apr-09 12:59N 53°52' E 008°43'0 0.0
2018-Apr-09 12:26N 53°52' E 008°43'0 0.0
2018-Apr-09 11:59N 53°52' E 008°43'0 0.0
2018-Apr-09 11:20N 53°52' E 008°43'0 0.0
2018-Apr-09 10:59N 53°52' E 008°43'0 0.0
2018-Apr-09 10:26N 53°52' E 008°43'0 0.0
2018-Apr-09 09:56N 53°52' E 008°43'0 0.0
2018-Apr-09 09:26N 53°52' E 008°43'0 0.0
2018-Apr-09 08:59N 53°52' E 008°43'0 0.0
2018-Apr-09 08:29N 53°52' E 008°43'0 0.0
2018-Apr-09 07:47N 53°52' E 008°43'0 0.0
2018-Apr-09 07:29N 53°52' E 008°43'0 0.0
2018-Apr-09 06:59N 53°52' E 008°43'0 0.0
2018-Apr-09 06:29N 53°52' E 008°43'0 0.0
2018-Apr-09 05:56N 53°52' E 008°43'0 0.0
2018-Apr-09 05:26N 53°52' E 008°43'0 0.0
2018-Apr-09 04:59N 53°52' E 008°43'0 0.0
2018-Apr-09 04:29N 53°52' E 008°43'0 0.0
2018-Apr-09 03:59N 53°52' E 008°43'0 0.0
2018-Apr-09 03:26N 53°52' E 008°43'0 0.0
2018-Apr-09 02:59N 53°52' E 008°43'0 0.0
2018-Apr-09 02:29N 53°52' E 008°43'0 0.0
2018-Apr-09 01:59N 53°52' E 008°43'0 0.0
2018-Apr-09 01:29N 53°52' E 008°43'0 0.0
2018-Apr-09 00:56N 53°52' E 008°43'0 0.0
2018-Apr-09 00:29N 53°52' E 008°43'0 0.0
2018-Apr-08 23:56N 53°52' E 008°43'0 0.0
2018-Apr-08 23:29N 53°52' E 008°43'0 0.0
2018-Apr-08 22:59N 53°52' E 008°43'0 0.0
2018-Apr-08 22:26N 53°52' E 008°43'  
Track history (hours):
 
Tides and Currents Weather Stations Pressure Air Temp Water Temp Dewpoint Dewpoint Depression Visibility Wind Speed Wind Dir Waves Ship Positions

Antares

Last reported at 2018-Apr-18 22:21 UTC. Time now 2018-Apr-20 10:46 UTC.
Position N 37°26' W 009°51'.

Length 79 m; draft 5.8 m.

Type: Ship. MMSI: 218777000.

Date/timePositionNaut miles runAvg speedWind from/ knotsBaromVisibWave heightAir tempDewpointWater temp
2018-Apr-18 22:21N 37°26' W 009°51'3 9.9
2018-Apr-18 22:01N 37°29' W 009°51'6 9.6
2018-Apr-18 21:24N 37°35' W 009°53'4 9.9
2018-Apr-18 21:00N 37°39' W 009°54'510.0
2018-Apr-18 20:31N 37°43' W 009°55'16 9.7
2018-Apr-18 18:50N 37°59' W 009°59'4 9.3
2018-Apr-18 18:25N 38°03' W 009°60'4 9.3
2018-Apr-18 18:00N 38°07' W 010°01'5 9.4
2018-Apr-18 17:30N 38°11' W 010°02'5 9.3
2018-Apr-18 17:00N 38°16' W 010°04'5 9.6
2018-Apr-18 16:30N 38°21' W 010°05'510.1
2018-Apr-18 16:00N 38°25' W 010°06'510.3
2018-Apr-18 15:30N 38°30' W 010°08'510.0
2018-Apr-18 15:00N 38°35' W 010°10'510.1
2018-Apr-18 14:30N 38°40' W 010°11'5 9.8
2018-Apr-18 14:00N 38°45' W 010°12'5 9.6
2018-Apr-18 13:30N 38°50' W 010°12'5 9.3
2018-Apr-18 12:59N 38°55' W 010°12'4 9.1
2018-Apr-18 12:30N 38°59' W 010°12'4 8.8
2018-Apr-18 12:01N 39°03' W 010°12'4 9.0
2018-Apr-18 11:31N 39°08' W 010°12'5 9.6
2018-Apr-18 11:01N 39°13' W 010°12'5 9.5
2018-Apr-18 10:30N 39°17' W 010°12'5 9.3
2018-Apr-18 09:57N 39°23' W 010°11'4 9.3
2018-Apr-18 09:30N 39°27' W 010°11'50 9.2
2018-Apr-18 04:08N 40°16' W 010°11'3 8.8
2018-Apr-18 03:45N 40°20' W 010°11'3 8.7
2018-Apr-18 03:27N 40°22' W 010°11'43 8.9
2018-Apr-17 22:42N 41°05' W 010°10'2 9.1
2018-Apr-17 22:29N 41°07' W 010°10'  
2018-Apr-14 14:43N 48°01' W 006°32'30 7.4
2018-Apr-14 10:38N 48°28' W 006°11'6 9.3
2018-Apr-14 09:58N 48°33' W 006°06'2310.2
2018-Apr-14 07:43N 48°53' W 005°49'5 9.7
2018-Apr-14 07:11N 48°56' W 005°43'2 9.7
2018-Apr-14 06:59N 48°57' W 005°40'10 9.4
2018-Apr-14 05:54N 49°03' W 005°27'6 8.8
2018-Apr-14 05:14N 49°05' W 005°19'2 8.4
2018-Apr-14 04:58N 49°06' W 005°16'75 9.2
2018-Apr-13 20:48N 49°44' W 003°37'310.1
2018-Apr-13 20:30N 49°46' W 003°33'5 9.8
2018-Apr-13 20:00N 49°48' W 003°26'5 9.4
2018-Apr-13 19:30N 49°51' W 003°20'4 8.9
2018-Apr-13 19:01N 49°53' W 003°14'4 8.4
2018-Apr-13 18:30N 49°55' W 003°08'4 8.1
2018-Apr-13 18:00N 49°57' W 003°03'4 8.0
2018-Apr-13 17:30N 49°59' W 002°57'4 8.1
2018-Apr-13 17:00N 49°60' W 002°51'4 8.3
2018-Apr-13 16:30N 50°01' W 002°45'4 8.6
2018-Apr-13 16:00N 50°02' W 002°39'2610.3
2018-Apr-13 13:32N 50°10' W 002°00'011.8
2018-Apr-13 13:30N 50°10' W 001°60'612.2
2018-Apr-13 13:00N 50°11' W 001°51'612.5
2018-Apr-13 12:30N 50°13' W 001°41'612.5
2018-Apr-13 12:00N 50°15' W 001°32'4510.0
2018-Apr-13 07:29N 50°27' W 000°24'4 7.9
2018-Apr-13 07:00N 50°28' W 000°18'4 8.0
2018-Apr-13 06:29N 50°30' W 000°12'4 8.2
2018-Apr-13 06:00N 50°31' W 000°06'4 8.5
2018-Apr-13 05:31N 50°32' E 000°00'4 8.8
2018-Apr-13 05:00N 50°33' E 000°07'5 9.3
2018-Apr-13 04:28N 50°35' E 000°14'5 9.8
2018-Apr-13 04:00N 50°36' E 000°21'510.2
2018-Apr-13 03:30N 50°37' E 000°29'510.3
2018-Apr-13 03:01N 50°39' E 000°36'510.7
2018-Apr-13 02:30N 50°42' E 000°43'510.5
2018-Apr-13 02:00N 50°45' E 000°50'510.2
2018-Apr-13 01:28N 50°49' E 000°57'5 9.8
2018-Apr-13 01:00N 50°51' E 001°03'17 8.8
2018-Apr-12 23:02N 51°03' E 001°24'0 8.0
2018-Apr-12 23:00N 51°03' E 001°24'4 7.8
2018-Apr-12 22:30N 51°05' E 001°29'4 7.6
2018-Apr-12 22:01N 51°08' E 001°33'4 7.9
2018-Apr-12 21:30N 51°10' E 001°38'4 8.4
2018-Apr-12 21:00N 51°13' E 001°43'5 9.2
2018-Apr-12 20:31N 51°17' E 001°47'510.1
2018-Apr-12 20:01N 51°21' E 001°51'510.8
2018-Apr-12 19:30N 51°26' E 001°54'510.4
2018-Apr-12 19:00N 51°29' E 002°01'611.3
2018-Apr-12 18:31N 51°34' E 002°07'611.3
2018-Apr-12 18:00N 51°38' E 002°13'151 9.2
2018-Apr-12 01:32N 53°32' E 004°56'0 9.1
2018-Apr-12 01:30N 53°32' E 004°57'5 9.2
2018-Apr-12 01:01N 53°33' E 005°04'107 9.8
2018-Apr-11 14:07N 54°01' E 007°58'310.0
2018-Apr-11 13:48N 54°01' E 008°03'310.4
2018-Apr-11 13:29N 54°01' E 008°09'611.5
2018-Apr-11 12:58N 54°00' E 008°19'612.6
2018-Apr-11 12:29N 53°59' E 008°29'612.3
2018-Apr-11 12:00N 53°57' E 008°39'511.0
2018-Apr-11 11:30N 53°52' E 008°43'0 0.1
2018-Apr-11 11:00N 53°52' E 008°43'0 0.0
2018-Apr-11 10:23N 53°52' E 008°43'0 0.0
2018-Apr-11 09:59N 53°52' E 008°43'0 0.0
2018-Apr-11 09:11N 53°52' E 008°43'0 0.0
2018-Apr-11 08:59N 53°52' E 008°43'0 0.0
2018-Apr-11 08:26N 53°52' E 008°43'0 0.0
2018-Apr-11 07:59N 53°52' E 008°43'0 0.0
2018-Apr-11 07:29N 53°52' E 008°43'0 0.0
2018-Apr-11 06:59N 53°52' E 008°43'0 0.0
2018-Apr-11 06:29N 53°52' E 008°43'0 0.0
2018-Apr-11 05:56N 53°52' E 008°43'0 0.0
2018-Apr-11 05:20N 53°52' E 008°43'0 0.0
2018-Apr-11 04:56N 53°52' E 008°43'0 0.0
2018-Apr-11 04:29N 53°52' E 008°43'0 0.0
2018-Apr-11 03:59N 53°52' E 008°43'0 0.0
2018-Apr-11 03:29N 53°52' E 008°43'0 0.0
2018-Apr-11 02:59N 53°52' E 008°43'0 0.0
2018-Apr-11 02:26N 53°52' E 008°43'0 0.0
2018-Apr-11 01:59N 53°52' E 008°43'0 0.0
2018-Apr-11 01:29N 53°52' E 008°43'0 0.0
2018-Apr-11 00:59N 53°52' E 008°43'0 0.0
2018-Apr-11 00:26N 53°52' E 008°43'0 0.0
2018-Apr-10 23:59N 53°52' E 008°43'0 0.0
2018-Apr-10 23:29N 53°52' E 008°43'0 0.0
2018-Apr-10 22:56N 53°52' E 008°43'0 0.0
2018-Apr-10 22:29N 53°52' E 008°43'0 0.0
2018-Apr-10 21:56N 53°52' E 008°43'0 0.0
2018-Apr-10 21:20N 53°52' E 008°43'0 0.0
2018-Apr-10 20:56N 53°52' E 008°43'0 0.0
2018-Apr-10 20:26N 53°52' E 008°43'0 0.0
2018-Apr-10 19:59N 53°52' E 008°43'0 0.0
2018-Apr-10 19:29N 53°52' E 008°43'0 0.0
2018-Apr-10 18:53N 53°52' E 008°43'0 0.0
2018-Apr-10 18:26N 53°52' E 008°43'0 0.0
2018-Apr-10 17:59N 53°52' E 008°43'0 0.0
2018-Apr-10 17:29N 53°52' E 008°43'0 0.0
2018-Apr-10 16:50N 53°52' E 008°43'0 0.0
2018-Apr-10 16:29N 53°52' E 008°43'0 0.0
2018-Apr-10 15:59N 53°52' E 008°43'0 0.0
2018-Apr-10 15:26N 53°52' E 008°43'0 0.0
2018-Apr-10 14:59N 53°52' E 008°43'0 0.0
2018-Apr-10 14:29N 53°52' E 008°43'0 0.0
2018-Apr-10 13:59N 53°52' E 008°43'0 0.0
2018-Apr-10 13:29N 53°52' E 008°43'0 0.0
2018-Apr-10 12:59N 53°52' E 008°43'0 0.0
2018-Apr-10 12:26N 53°52' E 008°43'0 0.0
2018-Apr-10 11:50N 53°52' E 008°43'0 0.0
2018-Apr-10 11:29N 53°52' E 008°43'0 0.0
2018-Apr-10 10:53N 53°52' E 008°43'0 0.0
2018-Apr-10 10:23N 53°52' E 008°43'0 0.0
2018-Apr-10 09:59N 53°52' E 008°43'0 0.0
2018-Apr-10 09:29N 53°52' E 008°43'0 0.0
2018-Apr-10 08:59N 53°52' E 008°43'0 0.0
2018-Apr-10 08:29N 53°52' E 008°43'0 0.0
2018-Apr-10 07:59N 53°52' E 008°43'0 0.0
2018-Apr-10 07:26N 53°52' E 008°43'0 0.0
2018-Apr-10 06:59N 53°52' E 008°43'0 0.0
2018-Apr-10 06:29N 53°52' E 008°43'0 0.0
2018-Apr-10 05:59N 53°52' E 008°43'0 0.0
2018-Apr-10 05:29N 53°52' E 008°43'0 0.0
2018-Apr-10 04:59N 53°52' E 008°43'0 0.0
2018-Apr-10 04:26N 53°52' E 008°43'0 0.0
2018-Apr-10 03:59N 53°52' E 008°43'0 0.0
2018-Apr-10 03:29N 53°52' E 008°43'0 0.0
2018-Apr-10 02:59N 53°52' E 008°43'0 0.0
2018-Apr-10 02:29N 53°52' E 008°43'0 0.0
2018-Apr-10 01:59N 53°52' E 008°43'0 0.0
2018-Apr-10 01:29N 53°52' E 008°43'0 0.0
2018-Apr-10 00:56N 53°52' E 008°43'0 0.0
2018-Apr-10 00:23N 53°52' E 008°43'0 0.0
2018-Apr-09 23:59N 53°52' E 008°43'0 0.0
2018-Apr-09 23:29N 53°52' E 008°43'0 0.0
2018-Apr-09 22:56N 53°52' E 008°43'0 0.0
2018-Apr-09 22:29N 53°52' E 008°43'0 0.0
2018-Apr-09 21:59N 53°52' E 008°43'0 0.0
2018-Apr-09 21:29N 53°52' E 008°43'0 0.0
2018-Apr-09 20:59N 53°52' E 008°43'0 0.0
2018-Apr-09 20:29N 53°52' E 008°43'0 0.0
2018-Apr-09 19:59N 53°52' E 008°43'0 0.0
2018-Apr-09 19:29N 53°52' E 008°43'0 0.0
2018-Apr-09 18:59N 53°52' E 008°43'0 0.0
2018-Apr-09 18:29N 53°52' E 008°43'0 0.0
2018-Apr-09 17:53N 53°52' E 008°43'0 0.0
2018-Apr-09 17:29N 53°52' E 008°43'0 0.0
2018-Apr-09 16:59N 53°52' E 008°43'0 0.0
2018-Apr-09 16:29N 53°52' E 008°43'0 0.0
2018-Apr-09 15:59N 53°52' E 008°43'0 0.0
2018-Apr-09 15:26N 53°52' E 008°43'0 0.0
2018-Apr-09 14:59N 53°52' E 008°43'0 0.0
2018-Apr-09 14:29N 53°52' E 008°43'0 0.0
2018-Apr-09 13:56N 53°52' E 008°43'0 0.0
2018-Apr-09 13:26N 53°52' E 008°43'0 0.0
2018-Apr-09 12:59N 53°52' E 008°43'0 0.0
2018-Apr-09 12:26N 53°52' E 008°43'0 0.0
2018-Apr-09 11:59N 53°52' E 008°43'0 0.0
2018-Apr-09 11:20N 53°52' E 008°43'0 0.0
2018-Apr-09 10:59N 53°52' E 008°43'0 0.0
2018-Apr-09 10:26N 53°52' E 008°43'0 0.0
2018-Apr-09 09:56N 53°52' E 008°43'0 0.0
2018-Apr-09 09:26N 53°52' E 008°43'0 0.0
2018-Apr-09 08:59N 53°52' E 008°43'0 0.0
2018-Apr-09 08:29N 53°52' E 008°43'0 0.0
2018-Apr-09 07:47N 53°52' E 008°43'0 0.0
2018-Apr-09 07:29N 53°52' E 008°43'0 0.0
2018-Apr-09 06:59N 53°52' E 008°43'0 0.0
2018-Apr-09 06:29N 53°52' E 008°43'0 0.0
2018-Apr-09 05:56N 53°52' E 008°43'0 0.0
2018-Apr-09 05:26N 53°52' E 008°43'0 0.0
2018-Apr-09 04:59N 53°52' E 008°43'0 0.0
2018-Apr-09 04:29N 53°52' E 008°43'0 0.0
2018-Apr-09 03:59N 53°52' E 008°43'0 0.0
2018-Apr-09 03:26N 53°52' E 008°43'0 0.0
2018-Apr-09 02:59N 53°52' E 008°43'0 0.0
2018-Apr-09 02:29N 53°52' E 008°43'0 0.0
2018-Apr-09 01:59N 53°52' E 008°43'0 0.0
2018-Apr-09 01:29N 53°52' E 008°43'0 0.0
2018-Apr-09 00:56N 53°52' E 008°43'0 0.0
2018-Apr-09 00:29N 53°52' E 008°43'0 0.0
2018-Apr-08 23:56N 53°52' E 008°43'0 0.0
2018-Apr-08 23:29N 53°52' E 008°43'0 0.0
2018-Apr-08 22:59N 53°52' E 008°43'0 0.0
2018-Apr-08 22:26N 53°52' E 008°43'  

Dump ship's entire track history